sensor_id;sensor_type;location;lat;lon;timestamp;P1;durP1;ratioP1;P2;durP2;ratioP2
2023;SDS011;1016;48.770;9.154;2022-08-24T00:01:51;21.60;;;3.60;;
2023;SDS011;1016;48.770;9.154;2022-08-24T00:04:16;20.00;;;3.60;;
2023;SDS011;1016;48.770;9.154;2022-08-24T00:06:42;20.80;;;3.60;;
2023;SDS011;1016;48.770;9.154;2022-08-24T00:09:08;21.70;;;3.70;;
2023;SDS011;1016;48.770;9.154;2022-08-24T00:11:33;20.40;;;3.63;;
2023;SDS011;1016;48.770;9.154;2022-08-24T00:13:59;21.87;;;3.40;;
2023;SDS011;1016;48.770;9.154;2022-08-24T00:16:24;20.07;;;3.60;;
2023;SDS011;1016;48.770;9.154;2022-08-24T00:18:50;20.73;;;3.45;;
2023;SDS011;1016;48.770;9.154;2022-08-24T00:21:16;20.73;;;3.70;;
2023;SDS011;1016;48.770;9.154;2022-08-24T00:23:43;20.30;;;3.60;;
2023;SDS011;1016;48.770;9.154;2022-08-24T00:26:09;20.45;;;3.50;;
2023;SDS011;1016;48.770;9.154;2022-08-24T00:28:35;20.13;;;3.78;;
2023;SDS011;1016;48.770;9.154;2022-08-24T00:31:01;22.23;;;3.70;;
2023;SDS011;1016;48.770;9.154;2022-08-24T00:33:27;21.70;;;3.60;;
2023;SDS011;1016;48.770;9.154;2022-08-24T00:35:53;20.33;;;3.40;;
2023;SDS011;1016;48.770;9.154;2022-08-24T00:38:18;20.00;;;3.50;;
2023;SDS011;1016;48.770;9.154;2022-08-24T00:40:45;20.80;;;3.30;;
2023;SDS011;1016;48.770;9.154;2022-08-24T00:43:13;21.17;;;3.50;;
2023;SDS011;1016;48.770;9.154;2022-08-24T00:45:43;20.30;;;3.35;;
2023;SDS011;1016;48.770;9.154;2022-08-24T00:48:16;20.47;;;3.30;;
2023;SDS011;1016;48.770;9.154;2022-08-24T00:50:55;19.95;;;3.50;;
2023;SDS011;1016;48.770;9.154;2022-08-24T00:53:35;21.10;;;3.90;;
2023;SDS011;1016;48.770;9.154;2022-08-24T00:56:05;21.40;;;3.50;;
2023;SDS011;1016;48.770;9.154;2022-08-24T00:58:38;20.92;;;3.60;;
2023;SDS011;1016;48.770;9.154;2022-08-24T01:01:08;20.52;;;3.50;;
2023;SDS011;1016;48.770;9.154;2022-08-24T01:03:37;21.00;;;3.60;;
2023;SDS011;1016;48.770;9.154;2022-08-24T01:06:04;20.52;;;3.70;;
2023;SDS011;1016;48.770;9.154;2022-08-24T01:08:30;21.00;;;3.60;;
2023;SDS011;1016;48.770;9.154;2022-08-24T01:10:58;20.55;;;3.35;;
2023;SDS011;1016;48.770;9.154;2022-08-24T01:13:26;21.35;;;3.40;;
2023;SDS011;1016;48.770;9.154;2022-08-24T01:15:53;21.10;;;3.55;;
2023;SDS011;1016;48.770;9.154;2022-08-24T01:18:23;20.00;;;3.90;;
2023;SDS011;1016;48.770;9.154;2022-08-24T01:21:31;21.60;;;3.70;;
2023;SDS011;1016;48.770;9.154;2022-08-24T01:23:59;20.17;;;3.58;;
2023;SDS011;1016;48.770;9.154;2022-08-24T01:26:27;20.17;;;3.40;;
2023;SDS011;1016;48.770;9.154;2022-08-24T01:29:02;21.20;;;3.60;;
2023;SDS011;1016;48.770;9.154;2022-08-24T01:31:31;19.80;;;3.60;;
2023;SDS011;1016;48.770;9.154;2022-08-24T01:33:58;20.02;;;3.70;;
2023;SDS011;1016;48.770;9.154;2022-08-24T01:38:59;20.10;;;3.70;;
2023;SDS011;1016;48.770;9.154;2022-08-24T01:41:29;20.80;;;3.60;;
2023;SDS011;1016;48.770;9.154;2022-08-24T01:43:56;20.25;;;3.50;;
2023;SDS011;1016;48.770;9.154;2022-08-24T01:46:23;21.55;;;3.90;;
2023;SDS011;1016;48.770;9.154;2022-08-24T01:48:48;21.50;;;3.83;;
2023;SDS011;1016;48.770;9.154;2022-08-24T01:51:14;20.30;;;3.73;;
2023;SDS011;1016;48.770;9.154;2022-08-24T01:53:39;19.98;;;3.40;;
2023;SDS011;1016;48.770;9.154;2022-08-24T01:56:05;20.42;;;3.85;;
2023;SDS011;1016;48.770;9.154;2022-08-24T01:58:30;20.77;;;3.80;;
2023;SDS011;1016;48.770;9.154;2022-08-24T02:00:56;21.70;;;3.85;;
2023;SDS011;1016;48.770;9.154;2022-08-24T02:03:22;21.33;;;4.30;;
2023;SDS011;1016;48.770;9.154;2022-08-24T02:05:48;20.23;;;3.88;;
2023;SDS011;1016;48.770;9.154;2022-08-24T02:08:14;20.80;;;3.80;;
2023;SDS011;1016;48.770;9.154;2022-08-24T02:10:40;20.70;;;3.83;;
2023;SDS011;1016;48.770;9.154;2022-08-24T02:13:06;19.77;;;3.70;;
2023;SDS011;1016;48.770;9.154;2022-08-24T02:15:33;20.67;;;3.63;;
2023;SDS011;1016;48.770;9.154;2022-08-24T02:18:04;20.92;;;3.60;;
2023;SDS011;1016;48.770;9.154;2022-08-24T02:20:30;21.27;;;3.55;;
2023;SDS011;1016;48.770;9.154;2022-08-24T02:22:56;21.38;;;3.70;;
2023;SDS011;1016;48.770;9.154;2022-08-24T02:25:22;20.90;;;3.80;;
2023;SDS011;1016;48.770;9.154;2022-08-24T02:27:48;20.55;;;3.78;;
2023;SDS011;1016;48.770;9.154;2022-08-24T02:30:14;19.80;;;3.60;;
2023;SDS011;1016;48.770;9.154;2022-08-24T02:32:41;20.70;;;3.60;;
2023;SDS011;1016;48.770;9.154;2022-08-24T02:35:07;20.33;;;3.70;;
2023;SDS011;1016;48.770;9.154;2022-08-24T02:37:33;20.92;;;3.50;;
2023;SDS011;1016;48.770;9.154;2022-08-24T02:39:59;20.30;;;4.00;;
2023;SDS011;1016;48.770;9.154;2022-08-24T02:42:25;20.58;;;3.90;;
2023;SDS011;1016;48.770;9.154;2022-08-24T02:44:51;20.40;;;4.20;;
2023;SDS011;1016;48.770;9.154;2022-08-24T02:47:17;20.90;;;4.13;;
2023;SDS011;1016;48.770;9.154;2022-08-24T02:49:42;20.08;;;4.10;;
2023;SDS011;1016;48.770;9.154;2022-08-24T02:52:08;21.27;;;4.35;;
2023;SDS011;1016;48.770;9.154;2022-08-24T02:54:34;21.50;;;4.32;;
2023;SDS011;1016;48.770;9.154;2022-08-24T02:56:59;22.63;;;4.20;;
2023;SDS011;1016;48.770;9.154;2022-08-24T02:59:25;21.63;;;3.83;;
2023;SDS011;1016;48.770;9.154;2022-08-24T03:01:51;20.87;;;3.90;;
2023;SDS011;1016;48.770;9.154;2022-08-24T03:04:17;21.23;;;3.80;;
2023;SDS011;1016;48.770;9.154;2022-08-24T03:06:43;21.00;;;4.22;;
2023;SDS011;1016;48.770;9.154;2022-08-24T03:09:08;22.47;;;4.33;;
2023;SDS011;1016;48.770;9.154;2022-08-24T03:11:34;20.25;;;3.50;;
2023;SDS011;1016;48.770;9.154;2022-08-24T03:14:00;20.20;;;4.20;;
2023;SDS011;1016;48.770;9.154;2022-08-24T03:16:27;20.90;;;4.00;;
2023;SDS011;1016;48.770;9.154;2022-08-24T03:18:53;21.30;;;4.22;;
2023;SDS011;1016;48.770;9.154;2022-08-24T03:21:19;21.02;;;4.15;;
2023;SDS011;1016;48.770;9.154;2022-08-24T03:23:44;21.50;;;4.20;;
2023;SDS011;1016;48.770;9.154;2022-08-24T03:26:10;20.40;;;4.10;;
2023;SDS011;1016;48.770;9.154;2022-08-24T03:28:36;20.33;;;4.30;;
2023;SDS011;1016;48.770;9.154;2022-08-24T03:31:02;20.60;;;4.47;;
2023;SDS011;1016;48.770;9.154;2022-08-24T03:33:28;21.17;;;4.07;;
2023;SDS011;1016;48.770;9.154;2022-08-24T03:35:54;21.70;;;4.10;;
2023;SDS011;1016;48.770;9.154;2022-08-24T03:38:19;21.30;;;4.35;;
2023;SDS011;1016;48.770;9.154;2022-08-24T03:40:46;21.77;;;4.53;;
2023;SDS011;1016;48.770;9.154;2022-08-24T03:43:11;20.55;;;4.20;;
2023;SDS011;1016;48.770;9.154;2022-08-24T03:45:57;21.85;;;4.40;;
2023;SDS011;1016;48.770;9.154;2022-08-24T03:48:26;21.60;;;4.60;;
2023;SDS011;1016;48.770;9.154;2022-08-24T03:50:53;21.92;;;4.60;;
2023;SDS011;1016;48.770;9.154;2022-08-24T03:53:19;20.80;;;4.40;;
2023;SDS011;1016;48.770;9.154;2022-08-24T03:55:45;21.55;;;4.40;;
2023;SDS011;1016;48.770;9.154;2022-08-24T03:58:10;20.87;;;4.60;;
2023;SDS011;1016;48.770;9.154;2022-08-24T04:00:36;21.35;;;4.60;;
2023;SDS011;1016;48.770;9.154;2022-08-24T04:03:03;22.13;;;4.43;;
2023;SDS011;1016;48.770;9.154;2022-08-24T04:05:29;20.53;;;4.60;;
2023;SDS011;1016;48.770;9.154;2022-08-24T04:07:55;20.95;;;4.57;;
2023;SDS011;1016;48.770;9.154;2022-08-24T04:10:21;22.30;;;4.70;;
2023;SDS011;1016;48.770;9.154;2022-08-24T04:12:47;21.30;;;4.37;;
2023;SDS011;1016;48.770;9.154;2022-08-24T04:15:12;20.98;;;4.45;;
2023;SDS011;1016;48.770;9.154;2022-08-24T04:17:38;20.50;;;4.30;;
2023;SDS011;1016;48.770;9.154;2022-08-24T04:20:04;21.40;;;4.23;;
2023;SDS011;1016;48.770;9.154;2022-08-24T04:22:30;23.13;;;4.75;;
2023;SDS011;1016;48.770;9.154;2022-08-24T04:25:00;21.65;;;4.32;;
2023;SDS011;1016;48.770;9.154;2022-08-24T04:27:26;20.87;;;4.50;;
2023;SDS011;1016;48.770;9.154;2022-08-24T04:29:51;21.00;;;4.50;;
2023;SDS011;1016;48.770;9.154;2022-08-24T04:32:17;21.10;;;4.70;;
2023;SDS011;1016;48.770;9.154;2022-08-24T04:34:43;22.25;;;4.80;;
2023;SDS011;1016;48.770;9.154;2022-08-24T04:37:09;20.13;;;4.40;;
2023;SDS011;1016;48.770;9.154;2022-08-24T04:39:35;21.35;;;4.65;;
2023;SDS011;1016;48.770;9.154;2022-08-24T04:42:01;21.47;;;4.47;;
2023;SDS011;1016;48.770;9.154;2022-08-24T04:44:27;21.13;;;4.75;;
2023;SDS011;1016;48.770;9.154;2022-08-24T04:46:53;20.60;;;4.75;;
2023;SDS011;1016;48.770;9.154;2022-08-24T04:49:20;20.60;;;4.30;;
2023;SDS011;1016;48.770;9.154;2022-08-24T04:51:46;20.90;;;4.63;;
2023;SDS011;1016;48.770;9.154;2022-08-24T04:54:11;22.10;;;5.00;;
2023;SDS011;1016;48.770;9.154;2022-08-24T04:56:37;22.70;;;4.83;;
2023;SDS011;1016;48.770;9.154;2022-08-24T04:59:03;21.73;;;4.57;;
2023;SDS011;1016;48.770;9.154;2022-08-24T05:01:29;22.00;;;4.60;;
2023;SDS011;1016;48.770;9.154;2022-08-24T05:03:56;21.50;;;4.70;;
2023;SDS011;1016;48.770;9.154;2022-08-24T05:06:23;20.80;;;4.63;;
2023;SDS011;1016;48.770;9.154;2022-08-24T05:08:51;21.20;;;4.63;;
2023;SDS011;1016;48.770;9.154;2022-08-24T05:11:18;21.90;;;5.00;;
2023;SDS011;1016;48.770;9.154;2022-08-24T05:13:44;22.33;;;5.30;;
2023;SDS011;1016;48.770;9.154;2022-08-24T05:16:11;22.35;;;5.10;;
2023;SDS011;1016;48.770;9.154;2022-08-24T05:18:39;24.00;;;5.00;;
2023;SDS011;1016;48.770;9.154;2022-08-24T05:21:06;23.73;;;5.10;;
2023;SDS011;1016;48.770;9.154;2022-08-24T05:23:33;22.98;;;4.90;;
2023;SDS011;1016;48.770;9.154;2022-08-24T05:26:06;22.10;;;5.13;;
2023;SDS011;1016;48.770;9.154;2022-08-24T05:28:35;21.33;;;4.95;;
2023;SDS011;1016;48.770;9.154;2022-08-24T05:33:34;25.38;;;5.90;;
2023;SDS011;1016;48.770;9.154;2022-08-24T05:36:00;22.85;;;5.05;;
2023;SDS011;1016;48.770;9.154;2022-08-24T05:38:26;21.83;;;5.05;;
2023;SDS011;1016;48.770;9.154;2022-08-24T05:40:51;23.33;;;5.67;;
2023;SDS011;1016;48.770;9.154;2022-08-24T05:43:17;23.05;;;5.30;;
2023;SDS011;1016;48.770;9.154;2022-08-24T05:45:42;22.65;;;5.60;;
2023;SDS011;1016;48.770;9.154;2022-08-24T05:48:08;24.83;;;5.73;;
2023;SDS011;1016;48.770;9.154;2022-08-24T05:50:34;22.70;;;5.20;;
2023;SDS011;1016;48.770;9.154;2022-08-24T05:52:59;21.77;;;4.87;;
2023;SDS011;1016;48.770;9.154;2022-08-24T05:55:25;23.80;;;4.90;;
2023;SDS011;1016;48.770;9.154;2022-08-24T05:57:50;21.90;;;4.90;;
2023;SDS011;1016;48.770;9.154;2022-08-24T06:00:16;22.13;;;5.50;;
2023;SDS011;1016;48.770;9.154;2022-08-24T06:02:42;22.13;;;5.20;;
2023;SDS011;1016;48.770;9.154;2022-08-24T06:05:08;22.95;;;5.20;;
2023;SDS011;1016;48.770;9.154;2022-08-24T06:07:34;22.60;;;5.37;;
2023;SDS011;1016;48.770;9.154;2022-08-24T06:10:00;23.80;;;5.53;;
2023;SDS011;1016;48.770;9.154;2022-08-24T06:12:25;24.53;;;5.30;;
2023;SDS011;1016;48.770;9.154;2022-08-24T06:14:51;22.27;;;4.60;;
2023;SDS011;1016;48.770;9.154;2022-08-24T06:17:17;21.80;;;5.10;;
2023;SDS011;1016;48.770;9.154;2022-08-24T06:19:43;22.03;;;4.97;;
2023;SDS011;1016;48.770;9.154;2022-08-24T06:22:09;23.08;;;5.30;;
2023;SDS011;1016;48.770;9.154;2022-08-24T06:24:34;24.42;;;5.40;;
2023;SDS011;1016;48.770;9.154;2022-08-24T06:27:19;21.83;;;5.10;;
2023;SDS011;1016;48.770;9.154;2022-08-24T06:29:46;22.20;;;4.70;;
2023;SDS011;1016;48.770;9.154;2022-08-24T06:32:15;21.67;;;4.65;;
2023;SDS011;1016;48.770;9.154;2022-08-24T06:34:41;23.10;;;5.00;;
2023;SDS011;1016;48.770;9.154;2022-08-24T06:37:07;21.60;;;5.00;;
2023;SDS011;1016;48.770;9.154;2022-08-24T06:39:32;23.57;;;5.13;;
2023;SDS011;1016;48.770;9.154;2022-08-24T06:41:58;21.25;;;5.10;;
2023;SDS011;1016;48.770;9.154;2022-08-24T06:44:24;24.80;;;6.77;;
2023;SDS011;1016;48.770;9.154;2022-08-24T06:46:49;23.52;;;5.57;;
2023;SDS011;1016;48.770;9.154;2022-08-24T06:49:16;23.10;;;5.40;;
2023;SDS011;1016;48.770;9.154;2022-08-24T06:51:42;22.40;;;5.60;;
2023;SDS011;1016;48.770;9.154;2022-08-24T06:54:08;25.15;;;7.70;;
2023;SDS011;1016;48.770;9.154;2022-08-24T06:56:35;22.90;;;6.07;;
2023;SDS011;1016;48.770;9.154;2022-08-24T06:59:04;23.30;;;6.20;;
2023;SDS011;1016;48.770;9.154;2022-08-24T07:01:29;24.40;;;6.43;;
2023;SDS011;1016;48.770;9.154;2022-08-24T07:03:56;25.92;;;6.13;;
2023;SDS011;1016;48.770;9.154;2022-08-24T07:06:22;23.40;;;6.00;;
2023;SDS011;1016;48.770;9.154;2022-08-24T07:08:48;24.48;;;6.10;;
2023;SDS011;1016;48.770;9.154;2022-08-24T07:11:15;52.83;;;8.77;;
2023;SDS011;1016;48.770;9.154;2022-08-24T07:13:42;33.00;;;6.97;;
2023;SDS011;1016;48.770;9.154;2022-08-24T07:16:08;34.20;;;7.50;;
2023;SDS011;1016;48.770;9.154;2022-08-24T07:18:34;24.45;;;5.90;;
2023;SDS011;1016;48.770;9.154;2022-08-24T07:21:00;24.87;;;5.87;;
2023;SDS011;1016;48.770;9.154;2022-08-24T07:23:26;25.77;;;5.95;;
2023;SDS011;1016;48.770;9.154;2022-08-24T07:25:52;22.87;;;5.60;;
2023;SDS011;1016;48.770;9.154;2022-08-24T07:28:17;22.30;;;5.10;;
2023;SDS011;1016;48.770;9.154;2022-08-24T07:30:43;23.80;;;5.67;;
2023;SDS011;1016;48.770;9.154;2022-08-24T07:33:09;23.50;;;5.60;;
2023;SDS011;1016;48.770;9.154;2022-08-24T07:35:35;29.35;;;5.90;;
2023;SDS011;1016;48.770;9.154;2022-08-24T07:38:01;24.33;;;5.70;;
2023;SDS011;1016;48.770;9.154;2022-08-24T07:40:29;25.40;;;6.63;;
2023;SDS011;1016;48.770;9.154;2022-08-24T07:42:55;22.80;;;5.60;;
2023;SDS011;1016;48.770;9.154;2022-08-24T07:45:22;23.20;;;5.50;;
2023;SDS011;1016;48.770;9.154;2022-08-24T07:47:49;23.38;;;5.32;;
2023;SDS011;1016;48.770;9.154;2022-08-24T07:50:15;24.50;;;5.60;;
2023;SDS011;1016;48.770;9.154;2022-08-24T07:52:42;24.65;;;5.90;;
2023;SDS011;1016;48.770;9.154;2022-08-24T07:55:08;22.77;;;5.70;;
2023;SDS011;1016;48.770;9.154;2022-08-24T07:57:37;25.60;;;5.90;;
2023;SDS011;1016;48.770;9.154;2022-08-24T08:00:04;25.65;;;6.50;;
2023;SDS011;1016;48.770;9.154;2022-08-24T08:02:32;23.08;;;5.95;;
2023;SDS011;1016;48.770;9.154;2022-08-24T08:04:58;23.83;;;6.10;;
2023;SDS011;1016;48.770;9.154;2022-08-24T08:07:24;24.27;;;5.50;;
2023;SDS011;1016;48.770;9.154;2022-08-24T08:09:49;24.63;;;5.00;;
2023;SDS011;1016;48.770;9.154;2022-08-24T08:12:16;22.73;;;5.00;;
2023;SDS011;1016;48.770;9.154;2022-08-24T08:14:43;23.63;;;5.60;;
2023;SDS011;1016;48.770;9.154;2022-08-24T08:17:09;23.52;;;5.32;;
2023;SDS011;1016;48.770;9.154;2022-08-24T08:19:35;22.60;;;5.30;;
2023;SDS011;1016;48.770;9.154;2022-08-24T08:22:01;23.63;;;4.93;;
2023;SDS011;1016;48.770;9.154;2022-08-24T08:24:45;22.52;;;4.80;;
2023;SDS011;1016;48.770;9.154;2022-08-24T08:27:10;22.60;;;4.40;;
2023;SDS011;1016;48.770;9.154;2022-08-24T08:29:37;22.08;;;5.60;;
2023;SDS011;1016;48.770;9.154;2022-08-24T08:32:04;20.70;;;3.80;;
2023;SDS011;1016;48.770;9.154;2022-08-24T08:34:31;21.50;;;3.75;;
2023;SDS011;1016;48.770;9.154;2022-08-24T08:36:58;21.98;;;4.10;;
2023;SDS011;1016;48.770;9.154;2022-08-24T08:39:24;21.90;;;4.00;;
2023;SDS011;1016;48.770;9.154;2022-08-24T08:44:59;21.85;;;3.40;;
2023;SDS011;1016;48.770;9.154;2022-08-24T08:50:35;21.80;;;3.50;;
2023;SDS011;1016;48.770;9.154;2022-08-24T08:53:24;23.77;;;7.13;;
2023;SDS011;1016;48.770;9.154;2022-08-24T08:59:05;20.98;;;3.35;;
2023;SDS011;1016;48.770;9.154;2022-08-24T09:20:50;21.60;;;3.00;;
2023;SDS011;1016;48.770;9.154;2022-08-24T09:26:26;19.55;;;3.00;;
2023;SDS011;1016;48.770;9.154;2022-08-24T09:29:12;20.52;;;3.47;;
2023;SDS011;1016;48.770;9.154;2022-08-24T09:31:56;21.38;;;3.80;;
2023;SDS011;1016;48.770;9.154;2022-08-24T09:40:15;20.63;;;2.97;;
2023;SDS011;1016;48.770;9.154;2022-08-24T09:48:14;21.60;;;2.70;;
2023;SDS011;1016;48.770;9.154;2022-08-24T10:04:54;20.73;;;2.38;;
2023;SDS011;1016;48.770;9.154;2022-08-24T10:10:23;23.35;;;6.05;;
2023;SDS011;1016;48.770;9.154;2022-08-24T10:16:06;20.00;;;2.50;;
2023;SDS011;1016;48.770;9.154;2022-08-24T10:29:51;20.40;;;3.07;;
2023;SDS011;1016;48.770;9.154;2022-08-24T10:35:48;19.03;;;3.07;;
2023;SDS011;1016;48.770;9.154;2022-08-24T10:49:21;17.87;;;2.43;;
2023;SDS011;1016;48.770;9.154;2022-08-24T10:57:48;19.03;;;3.10;;
2023;SDS011;1016;48.770;9.154;2022-08-24T11:00:20;20.63;;;3.10;;
2023;SDS011;1016;48.770;9.154;2022-08-24T11:03:03;18.13;;;2.30;;
2023;SDS011;1016;48.770;9.154;2022-08-24T11:05:37;18.47;;;2.50;;
2023;SDS011;1016;48.770;9.154;2022-08-24T11:08:11;17.90;;;2.40;;
2023;SDS011;1016;48.770;9.154;2022-08-24T11:13:32;19.07;;;2.83;;
2023;SDS011;1016;48.770;9.154;2022-08-24T11:15:59;18.43;;;2.70;;
2023;SDS011;1016;48.770;9.154;2022-08-24T11:24:10;19.93;;;3.00;;
2023;SDS011;1016;48.770;9.154;2022-08-24T11:26:58;19.33;;;3.13;;
2023;SDS011;1016;48.770;9.154;2022-08-24T11:30:21;20.30;;;2.90;;
2023;SDS011;1016;48.770;9.154;2022-08-24T11:32:28;18.37;;;2.50;;
2023;SDS011;1016;48.770;9.154;2022-08-24T11:37:56;18.43;;;2.30;;
2023;SDS011;1016;48.770;9.154;2022-08-24T11:40:32;19.53;;;2.33;;
2023;SDS011;1016;48.770;9.154;2022-08-24T11:43:19;18.30;;;2.67;;
2023;SDS011;1016;48.770;9.154;2022-08-24T11:46:04;19.60;;;3.13;;
2023;SDS011;1016;48.770;9.154;2022-08-24T11:49:11;18.27;;;2.93;;
2023;SDS011;1016;48.770;9.154;2022-08-24T11:52:07;18.40;;;2.67;;
2023;SDS011;1016;48.770;9.154;2022-08-24T11:55:07;18.80;;;2.90;;
2023;SDS011;1016;48.770;9.154;2022-08-24T11:57:46;19.13;;;2.90;;
2023;SDS011;1016;48.770;9.154;2022-08-24T12:00:35;21.33;;;3.20;;
2023;SDS011;1016;48.770;9.154;2022-08-24T12:03:26;17.57;;;2.30;;
2023;SDS011;1016;48.770;9.154;2022-08-24T12:06:06;18.50;;;2.70;;
2023;SDS011;1016;48.770;9.154;2022-08-24T12:08:44;19.47;;;2.40;;
2023;SDS011;1016;48.770;9.154;2022-08-24T12:11:42;19.57;;;2.87;;
2023;SDS011;1016;48.770;9.154;2022-08-24T12:14:20;18.73;;;2.37;;
2023;SDS011;1016;48.770;9.154;2022-08-24T12:17:01;19.37;;;2.67;;
2023;SDS011;1016;48.770;9.154;2022-08-24T12:19:34;22.67;;;2.30;;
2023;SDS011;1016;48.770;9.154;2022-08-24T12:22:05;18.37;;;2.53;;
2023;SDS011;1016;48.770;9.154;2022-08-24T12:27:12;17.87;;;2.30;;
2023;SDS011;1016;48.770;9.154;2022-08-24T12:30:01;18.17;;;2.33;;
2023;SDS011;1016;48.770;9.154;2022-08-24T12:32:44;17.97;;;2.07;;
2023;SDS011;1016;48.770;9.154;2022-08-24T12:35:33;18.13;;;2.20;;
2023;SDS011;1016;48.770;9.154;2022-08-24T12:38:08;18.80;;;2.37;;
2023;SDS011;1016;48.770;9.154;2022-08-24T12:40:47;19.60;;;5.40;;
2023;SDS011;1016;48.770;9.154;2022-08-24T12:43:17;22.77;;;2.73;;
2023;SDS011;1016;48.770;9.154;2022-08-24T12:45:44;18.57;;;2.30;;
2023;SDS011;1016;48.770;9.154;2022-08-24T12:48:16;17.67;;;2.00;;
2023;SDS011;1016;48.770;9.154;2022-08-24T12:53:44;18.47;;;2.20;;
2023;SDS011;1016;48.770;9.154;2022-08-24T13:01:36;18.37;;;2.43;;
2023;SDS011;1016;48.770;9.154;2022-08-24T13:04:10;18.80;;;2.20;;
2023;SDS011;1016;48.770;9.154;2022-08-24T13:06:41;17.63;;;1.80;;
2023;SDS011;1016;48.770;9.154;2022-08-24T13:11:59;18.10;;;2.17;;
2023;SDS011;1016;48.770;9.154;2022-08-24T13:15:23;17.30;;;2.00;;
2023;SDS011;1016;48.770;9.154;2022-08-24T13:25:55;18.47;;;2.70;;
2023;SDS011;1016;48.770;9.154;2022-08-24T13:33:36;19.60;;;2.50;;
2023;SDS011;1016;48.770;9.154;2022-08-24T13:39:24;20.03;;;2.87;;
2023;SDS011;1016;48.770;9.154;2022-08-24T13:50:05;18.67;;;2.63;;
2023;SDS011;1016;48.770;9.154;2022-08-24T14:06:49;17.80;;;2.93;;
2023;SDS011;1016;48.770;9.154;2022-08-24T14:12:10;18.17;;;2.90;;
2023;SDS011;1016;48.770;9.154;2022-08-24T14:14:51;18.90;;;3.00;;
2023;SDS011;1016;48.770;9.154;2022-08-24T14:25:39;18.73;;;2.42;;
2023;SDS011;1016;48.770;9.154;2022-08-24T14:28:32;18.77;;;2.50;;
2023;SDS011;1016;48.770;9.154;2022-08-24T14:33:54;18.10;;;2.72;;
2023;SDS011;1016;48.770;9.154;2022-08-24T14:39:20;17.70;;;2.97;;
2023;SDS011;1016;48.770;9.154;2022-08-24T14:41:53;16.80;;;2.23;;
2023;SDS011;1016;48.770;9.154;2022-08-24T14:44:24;18.00;;;2.30;;
2023;SDS011;1016;48.770;9.154;2022-08-24T14:49:46;17.27;;;2.60;;
2023;SDS011;1016;48.770;9.154;2022-08-24T14:54:59;19.40;;;2.80;;
2023;SDS011;1016;48.770;9.154;2022-08-24T15:13:09;18.90;;;3.13;;
2023;SDS011;1016;48.770;9.154;2022-08-24T15:15:59;19.05;;;3.15;;
2023;SDS011;1016;48.770;9.154;2022-08-24T15:18:44;23.40;;;2.97;;
2023;SDS011;1016;48.770;9.154;2022-08-24T15:21:16;18.13;;;2.73;;
2023;SDS011;1016;48.770;9.154;2022-08-24T15:27:01;18.50;;;2.97;;
2023;SDS011;1016;48.770;9.154;2022-08-24T15:29:29;19.47;;;3.03;;
2023;SDS011;1016;48.770;9.154;2022-08-24T15:32:07;19.43;;;3.17;;
2023;SDS011;1016;48.770;9.154;2022-08-24T15:34:50;17.80;;;2.50;;
2023;SDS011;1016;48.770;9.154;2022-08-24T15:37:26;18.37;;;4.00;;
2023;SDS011;1016;48.770;9.154;2022-08-24T15:39:57;17.97;;;2.90;;
2023;SDS011;1016;48.770;9.154;2022-08-24T15:42:27;18.80;;;3.00;;
2023;SDS011;1016;48.770;9.154;2022-08-24T15:44:54;19.77;;;3.10;;
2023;SDS011;1016;48.770;9.154;2022-08-24T15:50:15;18.27;;;2.70;;
2023;SDS011;1016;48.770;9.154;2022-08-24T15:55:53;18.20;;;3.30;;
2023;SDS011;1016;48.770;9.154;2022-08-24T15:58:32;18.73;;;3.47;;
2023;SDS011;1016;48.770;9.154;2022-08-24T16:03:57;20.63;;;2.83;;
2023;SDS011;1016;48.770;9.154;2022-08-24T16:14:10;20.13;;;3.93;;
2023;SDS011;1016;48.770;9.154;2022-08-24T16:16:51;19.10;;;2.90;;
2023;SDS011;1016;48.770;9.154;2022-08-24T16:19:19;20.40;;;2.97;;
2023;SDS011;1016;48.770;9.154;2022-08-24T16:22:01;19.10;;;2.40;;
2023;SDS011;1016;48.770;9.154;2022-08-24T16:24:33;18.30;;;2.43;;
2023;SDS011;1016;48.770;9.154;2022-08-24T16:32:15;18.33;;;2.53;;
2023;SDS011;1016;48.770;9.154;2022-08-24T16:34:51;18.03;;;2.20;;
2023;SDS011;1016;48.770;9.154;2022-08-24T16:37:19;17.77;;;2.30;;
2023;SDS011;1016;48.770;9.154;2022-08-24T16:39:46;18.57;;;2.80;;
2023;SDS011;1016;48.770;9.154;2022-08-24T16:42:19;19.87;;;2.67;;
2023;SDS011;1016;48.770;9.154;2022-08-24T16:44:51;18.23;;;3.83;;
2023;SDS011;1016;48.770;9.154;2022-08-24T16:47:19;18.40;;;2.33;;
2023;SDS011;1016;48.770;9.154;2022-08-24T16:49:45;18.87;;;2.30;;
2023;SDS011;1016;48.770;9.154;2022-08-24T16:52:11;20.07;;;3.60;;
2023;SDS011;1016;48.770;9.154;2022-08-24T16:54:37;19.70;;;2.77;;
2023;SDS011;1016;48.770;9.154;2022-08-24T16:57:13;18.77;;;2.53;;
2023;SDS011;1016;48.770;9.154;2022-08-24T16:59:43;20.30;;;2.57;;
2023;SDS011;1016;48.770;9.154;2022-08-24T17:02:11;18.00;;;2.17;;
2023;SDS011;1016;48.770;9.154;2022-08-24T17:04:38;18.80;;;2.23;;
2023;SDS011;1016;48.770;9.154;2022-08-24T17:07:04;20.20;;;2.80;;
2023;SDS011;1016;48.770;9.154;2022-08-24T17:09:34;19.60;;;2.90;;
2023;SDS011;1016;48.770;9.154;2022-08-24T17:12:01;18.63;;;2.17;;
2023;SDS011;1016;48.770;9.154;2022-08-24T17:14:27;18.40;;;2.53;;
2023;SDS011;1016;48.770;9.154;2022-08-24T17:16:52;18.73;;;2.77;;
2023;SDS011;1016;48.770;9.154;2022-08-24T17:19:18;17.83;;;2.40;;
2023;SDS011;1016;48.770;9.154;2022-08-24T17:21:45;18.53;;;2.80;;
2023;SDS011;1016;48.770;9.154;2022-08-24T17:24:12;19.70;;;2.10;;
2023;SDS011;1016;48.770;9.154;2022-08-24T17:26:39;18.63;;;2.47;;
2023;SDS011;1016;48.770;9.154;2022-08-24T17:29:06;18.07;;;2.13;;
2023;SDS011;1016;48.770;9.154;2022-08-24T17:31:34;19.17;;;1.83;;
2023;SDS011;1016;48.770;9.154;2022-08-24T17:34:00;18.70;;;2.43;;
2023;SDS011;1016;48.770;9.154;2022-08-24T17:36:26;17.40;;;2.17;;
2023;SDS011;1016;48.770;9.154;2022-08-24T17:38:52;18.20;;;2.03;;
2023;SDS011;1016;48.770;9.154;2022-08-24T17:41:19;19.40;;;2.17;;
2023;SDS011;1016;48.770;9.154;2022-08-24T17:43:45;19.37;;;2.50;;
2023;SDS011;1016;48.770;9.154;2022-08-24T17:46:11;20.67;;;3.10;;
2023;SDS011;1016;48.770;9.154;2022-08-24T17:48:38;18.40;;;2.13;;
2023;SDS011;1016;48.770;9.154;2022-08-24T17:51:04;18.70;;;2.57;;
2023;SDS011;1016;48.770;9.154;2022-08-24T17:53:30;19.50;;;2.50;;
2023;SDS011;1016;48.770;9.154;2022-08-24T17:55:55;20.50;;;2.97;;
2023;SDS011;1016;48.770;9.154;2022-08-24T17:58:21;19.43;;;3.10;;
2023;SDS011;1016;48.770;9.154;2022-08-24T18:00:47;19.47;;;2.33;;
2023;SDS011;1016;48.770;9.154;2022-08-24T18:03:12;19.50;;;2.47;;
2023;SDS011;1016;48.770;9.154;2022-08-24T18:05:38;20.03;;;2.40;;
2023;SDS011;1016;48.770;9.154;2022-08-24T18:08:04;19.63;;;2.50;;
2023;SDS011;1016;48.770;9.154;2022-08-24T18:10:30;18.90;;;2.80;;
2023;SDS011;1016;48.770;9.154;2022-08-24T18:12:57;19.38;;;2.90;;
2023;SDS011;1016;48.770;9.154;2022-08-24T18:15:24;19.67;;;2.50;;
2023;SDS011;1016;48.770;9.154;2022-08-24T18:17:52;20.77;;;2.55;;
2023;SDS011;1016;48.770;9.154;2022-08-24T18:20:20;19.17;;;2.50;;
2023;SDS011;1016;48.770;9.154;2022-08-24T18:22:49;19.10;;;2.80;;
2023;SDS011;1016;48.770;9.154;2022-08-24T18:25:15;19.60;;;2.40;;
2023;SDS011;1016;48.770;9.154;2022-08-24T18:27:42;19.77;;;2.47;;
2023;SDS011;1016;48.770;9.154;2022-08-24T18:30:14;18.77;;;2.42;;
2023;SDS011;1016;48.770;9.154;2022-08-24T18:32:44;19.02;;;2.50;;
2023;SDS011;1016;48.770;9.154;2022-08-24T18:35:10;19.83;;;2.70;;
2023;SDS011;1016;48.770;9.154;2022-08-24T18:37:36;19.63;;;2.60;;
2023;SDS011;1016;48.770;9.154;2022-08-24T18:40:03;18.92;;;2.40;;
2023;SDS011;1016;48.770;9.154;2022-08-24T18:42:30;19.40;;;2.60;;
2023;SDS011;1016;48.770;9.154;2022-08-24T18:44:57;21.40;;;2.90;;
2023;SDS011;1016;48.770;9.154;2022-08-24T18:47:25;19.33;;;3.15;;
2023;SDS011;1016;48.770;9.154;2022-08-24T18:49:51;18.98;;;2.90;;
2023;SDS011;1016;48.770;9.154;2022-08-24T18:52:17;20.27;;;3.30;;
2023;SDS011;1016;48.770;9.154;2022-08-24T18:54:43;20.85;;;3.50;;
2023;SDS011;1016;48.770;9.154;2022-08-24T18:57:11;19.50;;;3.45;;
2023;SDS011;1016;48.770;9.154;2022-08-24T18:59:37;19.40;;;3.10;;
2023;SDS011;1016;48.770;9.154;2022-08-24T19:02:07;19.63;;;2.85;;